Time;durP1;ratioP1;P1;durP2;ratioP2;P2;SDS_P1;SDS_P2;PMS_P1;PMS_P2;Temp;Humidity;BMP_temperature;BMP_pressure;BME280_temperature;BME280_humidity;BME280_pressure;Samples;Min_cycle;Max_cycle;Signal;HPM_P1;HPM_P2
2023/06/05 00:02:02;;;;;;;1999.90;999.90;;;12.20;99.90;;;;;;5054087;28;20103;-66
2023/06/05 00:04:28;;;;;;;1999.90;999.90;;;12.20;99.90;;;;;;5053587;28;20072;-66
2023/06/05 00:06:54;;;;;;;1999.90;999.90;;;12.20;99.90;;;;;;5053360;28;20048;-66
2023/06/05 00:09:20;;;;;;;1999.90;999.90;;;12.20;99.90;;;;;;5052913;28;20059;-66
2023/06/05 00:11:46;;;;;;;1999.90;999.90;;;12.20;99.90;;;;;;5053544;28;20045;-66
2023/06/05 00:14:12;;;;;;;1999.90;999.90;;;12.20;99.90;;;;;;5053301;28;20052;-66
2023/06/05 00:16:37;;;;;;;1999.90;999.90;;;12.20;99.90;;;;;;5052027;28;20092;-66
2023/06/05 00:19:03;;;;;;;1999.90;999.90;;;12.30;99.90;;;;;;5053512;28;20049;-66
2023/06/05 00:21:29;;;;;;;1999.90;999.90;;;12.20;99.90;;;;;;5053232;28;20083;-66
2023/06/05 00:23:55;;;;;;;1999.90;999.90;;;12.30;99.90;;;;;;5053927;28;20071;-66
2023/06/05 00:26:21;;;;;;;1999.90;999.90;;;12.30;99.90;;;;;;5053052;28;20445;-67
2023/06/05 00:28:47;;;;;;;1999.90;999.90;;;12.30;99.90;;;;;;5053314;28;20064;-66
2023/06/05 00:31:13;;;;;;;1999.90;999.90;;;12.30;99.90;;;;;;5052636;28;20056;-66
2023/06/05 00:33:40;;;;;;;1999.90;999.90;;;12.30;99.90;;;;;;5053113;28;20053;-66
2023/06/05 00:36:06;;;;;;;1999.90;999.90;;;12.30;99.90;;;;;;5053327;28;20053;-67
2023/06/05 00:38:32;;;;;;;1999.90;999.90;;;12.30;99.90;;;;;;5053592;28;20055;-67
2023/06/05 00:40:58;;;;;;;1999.90;999.90;;;12.30;99.90;;;;;;5053020;28;20049;-66
2023/06/05 00:43:24;;;;;;;1999.90;999.90;;;12.30;99.90;;;;;;5054432;28;20072;-66
2023/06/05 00:45:56;;;;;;;1999.90;999.90;;;12.30;99.90;;;;;;5056557;28;20045;-65
2023/06/05 00:48:22;;;;;;;1999.90;999.90;;;12.30;99.90;;;;;;5056827;28;20128;-66
2023/06/05 00:50:48;;;;;;;1999.90;999.90;;;12.30;99.90;;;;;;5056720;28;20123;-66
2023/06/05 00:53:14;;;;;;;1999.90;999.90;;;12.30;99.90;;;;;;5039126;28;20133;-66
2023/06/05 00:55:40;;;;;;;1999.90;999.90;;;12.30;99.90;;;;;;5057446;28;20114;-66
2023/06/05 00:58:06;;;;;;;1999.90;999.90;;;12.40;99.90;;;;;;5056622;28;20048;-66
2023/06/05 01:00:33;;;;;;;1999.90;999.90;;;12.40;99.90;;;;;;5038835;28;20087;-66
2023/06/05 01:02:59;;;;;;;1999.90;999.90;;;12.40;99.90;;;;;;5056536;28;20049;-66
2023/06/05 01:05:26;;;;;;;1999.90;999.90;;;12.40;99.90;;;;;;5056032;28;20060;-66
2023/06/05 01:07:53;;;;;;;1999.90;999.90;;;12.40;99.90;;;;;;5056433;28;20052;-66
2023/06/05 01:10:19;;;;;;;1999.90;999.90;;;12.40;99.90;;;;;;5056866;28;20388;-66
2023/06/05 01:13:13;;;;;;;1999.90;999.90;;;12.40;99.90;;;;;;5056408;28;20081;-66
2023/06/05 01:15:39;;;;;;;1999.90;999.90;;;12.40;99.90;;;;;;5056342;28;20040;-66
2023/06/05 01:18:06;;;;;;;1999.90;999.90;;;12.40;99.90;;;;;;5055868;28;20373;-66
2023/06/05 01:20:39;;;;;;;1999.90;999.90;;;12.40;99.90;;;;;;5055185;28;20176;-66
2023/06/05 01:23:06;;;;;;;1999.90;999.90;;;12.50;99.90;;;;;;5056122;28;20055;-66
2023/06/05 01:25:36;;;;;;;1999.90;999.90;;;12.50;99.90;;;;;;5055787;28;20512;-66
2023/06/05 01:28:07;;;;;;;1999.90;999.90;;;12.50;99.90;;;;;;5055637;28;20488;-66
2023/06/05 01:30:46;;;;;;;1999.90;999.90;;;12.50;99.90;;;;;;5055978;28;20052;-66
2023/06/05 01:33:20;;;;;;;1999.90;999.90;;;12.50;99.90;;;;;;5055981;28;20132;-66
2023/06/05 01:35:51;;;;;;;1999.90;999.90;;;12.50;99.90;;;;;;5055951;28;20048;-66
2023/06/05 01:38:18;;;;;;;1999.90;999.90;;;12.50;99.90;;;;;;5055531;28;20068;-66
2023/06/05 01:40:46;;;;;;;1999.90;999.90;;;12.50;99.90;;;;;;5055784;28;20477;-66
2023/06/05 01:43:12;;;;;;;1999.90;999.90;;;12.50;99.90;;;;;;5056257;28;20048;-66
2023/06/05 01:45:40;;;;;;;1999.90;999.90;;;12.50;99.90;;;;;;5037879;28;20396;-66
2023/06/05 01:48:10;;;;;;;1999.90;999.90;;;12.50;99.90;;;;;;5054654;28;20053;-66
2023/06/05 01:50:37;;;;;;;1999.90;999.90;;;12.50;99.90;;;;;;5056083;28;20135;-66
2023/06/05 01:53:04;;;;;;;1999.90;999.90;;;12.50;99.90;;;;;;5055778;28;20049;-66
2023/06/05 01:55:31;;;;;;;1999.90;999.90;;;12.50;99.90;;;;;;5054275;28;20102;-66
2023/06/05 01:57:56;;;;;;;1999.90;999.90;;;12.50;99.90;;;;;;5055382;28;20045;-66
2023/06/05 02:00:22;;;;;;;1999.90;999.90;;;12.60;99.90;;;;;;5055372;28;20556;-66
2023/06/05 02:02:49;;;;;;;1999.90;999.90;;;12.50;99.90;;;;;;5055572;28;20106;-66
2023/06/05 02:05:17;;;;;;;1999.90;999.90;;;12.50;99.90;;;;;;5055348;28;20056;-66
2023/06/05 02:07:58;;;;;;;1999.90;999.90;;;12.50;99.90;;;;;;5055255;28;20461;-66
2023/06/05 02:10:24;;;;;;;1999.90;999.90;;;12.60;99.90;;;;;;5055720;28;20045;-66
2023/06/05 02:12:50;;;;;;;1999.90;999.90;;;12.60;99.90;;;;;;5053928;28;20107;-66
2023/06/05 02:15:16;;;;;;;1999.90;999.90;;;12.60;99.90;;;;;;5054145;28;20056;-66
2023/06/05 02:17:44;;;;;;;1999.90;999.90;;;12.60;99.90;;;;;;5055661;28;20045;-66
2023/06/05 02:20:15;;;;;;;1999.90;999.90;;;12.60;99.90;;;;;;5055151;28;20407;-66
2023/06/05 02:22:41;;;;;;;1999.90;999.90;;;12.50;99.90;;;;;;5055631;28;20063;-66
2023/06/05 02:25:08;;;;;;;1999.90;999.90;;;12.50;99.90;;;;;;5055001;28;20132;-66
2023/06/05 02:27:33;;;;;;;1999.90;999.90;;;12.50;99.90;;;;;;5055150;28;20044;-66
2023/06/05 02:29:59;;;;;;;1999.90;999.90;;;12.50;99.90;;;;;;5054946;28;20060;-66
2023/06/05 02:32:28;;;;;;;1999.90;999.90;;;12.50;99.90;;;;;;5054824;28;20053;-66
2023/06/05 02:34:56;;;;;;;1999.90;999.90;;;12.50;99.90;;;;;;5055241;28;20049;-66
2023/06/05 02:37:27;;;;;;;1999.90;999.90;;;12.50;99.90;;;;;;5054766;28;20060;-66
2023/06/05 02:39:53;;;;;;;1999.90;999.90;;;12.50;99.90;;;;;;5054751;28;20084;-66
2023/06/05 02:42:19;;;;;;;1999.90;999.90;;;12.50;99.90;;;;;;5054657;28;20091;-66
2023/06/05 02:44:46;;;;;;;1999.90;999.90;;;12.50;99.90;;;;;;5054595;28;20055;-66
2023/06/05 02:47:12;;;;;;;1999.90;999.90;;;12.50;99.90;;;;;;5055072;28;20449;-66
2023/06/05 02:49:38;;;;;;;1999.90;999.90;;;12.50;99.90;;;;;;5053731;28;20469;-66
2023/06/05 02:52:04;;;;;;;1999.90;999.90;;;12.50;99.90;;;;;;5054485;28;20043;-66
2023/06/05 02:54:30;;;;;;;1999.90;999.90;;;12.50;99.90;;;;;;5054409;28;20052;-66
2023/06/05 02:57:00;;;;;;;1999.90;999.90;;;12.50;99.90;;;;;;5054294;28;20041;-66
2023/06/05 02:59:27;;;;;;;1999.90;999.90;;;12.50;99.90;;;;;;5054305;28;20052;-66
2023/06/05 03:01:54;;;;;;;1999.90;999.90;;;12.50;99.90;;;;;;5054796;28;20110;-66
2023/06/05 03:04:21;;;;;;;1999.90;999.90;;;12.50;99.90;;;;;;5054292;28;20470;-66
2023/06/05 03:06:50;;;;;;;1999.90;999.90;;;12.50;99.90;;;;;;5053838;28;20174;-66
2023/06/05 03:09:16;;;;;;;1999.90;999.90;;;12.50;99.90;;;;;;5054164;28;20088;-66
2023/06/05 03:11:43;;;;;;;1999.90;999.90;;;12.50;99.90;;;;;;5054051;28;20041;-65
2023/06/05 03:14:09;;;;;;;1999.90;999.90;;;12.50;99.90;;;;;;5054066;28;20132;-66
2023/06/05 03:16:41;;;;;;;1999.90;999.90;;;12.50;99.90;;;;;;5052876;28;20128;-66
2023/06/05 03:19:10;;;;;;;1999.90;999.90;;;12.50;99.90;;;;;;5054042;28;20128;-66
2023/06/05 03:21:38;;;;;;;1999.90;999.90;;;12.50;99.90;;;;;;5053919;28;20473;-66
2023/06/05 03:24:14;;;;;;;1999.90;999.90;;;12.50;99.90;;;;;;5053870;28;20048;-66
2023/06/05 03:26:40;;;;;;;1999.90;999.90;;;12.40;99.90;;;;;;5053825;28;20464;-66
2023/06/05 03:29:07;;;;;;;1999.90;999.90;;;12.50;99.90;;;;;;5052328;28;20068;-66
2023/06/05 03:31:34;;;;;;;1999.90;999.90;;;12.40;99.90;;;;;;5053369;28;20480;-66
2023/06/05 03:33:59;;;;;;;1999.90;999.90;;;12.40;99.90;;;;;;5054231;28;20048;-66
2023/06/05 03:36:29;;;;;;;1999.90;999.90;;;12.40;99.90;;;;;;5053716;28;20053;-66
2023/06/05 03:38:55;;;;;;;1999.90;999.90;;;12.40;99.90;;;;;;5054246;28;20045;-66
2023/06/05 03:41:21;;;;;;;1999.90;999.90;;;12.40;99.90;;;;;;5053901;28;20084;-66
2023/06/05 03:43:49;;;;;;;1999.90;999.90;;;12.30;99.90;;;;;;5053603;28;20149;-66
2023/06/05 03:46:18;;;;;;;1999.90;999.90;;;12.30;99.90;;;;;;5053554;28;20405;-66
2023/06/05 03:48:45;;;;;;;1999.90;999.90;;;12.30;99.90;;;;;;5052931;28;20373;-66
2023/06/05 03:51:11;;;;;;;1999.90;999.90;;;12.30;99.90;;;;;;5053510;28;20102;-66
2023/06/05 03:53:39;;;;;;;1999.90;999.90;;;12.30;99.90;;;;;;5053117;28;20048;-66
2023/06/05 03:56:08;;;;;;;1999.90;999.90;;;12.30;99.90;;;;;;5053794;28;20128;-66
2023/06/05 03:58:35;;;;;;;1999.90;999.90;;;12.30;99.90;;;;;;5053995;28;20049;-66
2023/06/05 04:01:00;;;;;;;1999.90;999.90;;;12.20;99.90;;;;;;5059369;28;20128;-65
2023/06/05 04:03:27;;;;;;;1999.90;999.90;;;12.20;99.90;;;;;;5053239;28;20073;-66
2023/06/05 04:05:53;;;;;;;1999.90;999.90;;;12.20;99.90;;;;;;5053391;28;20048;-66
2023/06/05 04:08:18;;;;;;;1999.90;999.90;;;12.20;99.90;;;;;;5053319;28;20087;-66
2023/06/05 04:10:44;;;;;;;1999.90;999.90;;;12.20;99.90;;;;;;5052128;28;20080;-66
2023/06/05 04:13:10;;;;;;;1999.90;999.90;;;12.20;99.90;;;;;;5053274;28;20045;-67
2023/06/05 04:15:36;;;;;;;1999.90;999.90;;;12.20;99.90;;;;;;5053532;28;20095;-65
2023/06/05 04:18:02;;;;;;;1999.90;999.90;;;12.20;99.90;;;;;;5052625;28;20127;-65
2023/06/05 04:20:28;;;;;;;1999.90;999.90;;;12.20;99.90;;;;;;5057332;28;20052;-65
2023/06/05 04:22:54;;;;;;;1999.90;999.90;;;12.20;99.90;;;;;;5056579;28;20056;-64
2023/06/05 04:25:19;;;;;;;1999.90;999.90;;;12.30;99.90;;;;;;5057772;28;20067;-64
2023/06/05 04:27:49;;;;;;;1999.90;999.90;;;12.20;99.90;;;;;;5056304;28;20040;-65
2023/06/05 04:30:15;;;;;;;1999.90;999.90;;;12.30;99.90;;;;;;5057879;28;20049;-65
2023/06/05 04:32:41;;;;;;;1999.90;999.90;;;12.30;99.90;;;;;;5057078;28;20480;-65
2023/06/05 04:35:08;;;;;;;1999.90;999.90;;;12.30;99.90;;;;;;5056985;28;20040;-64
2023/06/05 04:37:38;;;;;;;1999.90;999.90;;;12.30;99.90;;;;;;5055964;28;20092;-65
2023/06/05 04:40:05;;;;;;;1999.90;999.90;;;12.30;99.90;;;;;;5057045;28;20076;-65
2023/06/05 04:42:35;;;;;;;1999.90;999.90;;;12.30;99.90;;;;;;5056535;28;20477;-65
2023/06/05 04:45:03;;;;;;;1999.90;999.90;;;12.30;99.90;;;;;;5055356;28;20503;-65
2023/06/05 04:47:29;;;;;;;1999.90;999.90;;;12.30;99.90;;;;;;5056771;28;20045;-65
2023/06/05 04:49:58;;;;;;;1999.90;999.90;;;12.30;99.90;;;;;;5057481;28;20341;-65
2023/06/05 04:52:24;;;;;;;1999.90;999.90;;;12.30;99.90;;;;;;5056710;28;20091;-65
2023/06/05 04:54:50;;;;;;;1999.90;999.90;;;12.30;99.90;;;;;;5055999;28;20080;-65
2023/06/05 04:57:16;;;;;;;1999.90;999.90;;;12.30;99.90;;;;;;5055354;28;20080;-65
2023/06/05 04:59:45;;;;;;;1999.90;999.90;;;12.30;99.90;;;;;;5056556;28;20107;-65
2023/06/05 05:02:12;;;;;;;1999.90;999.90;;;12.30;99.90;;;;;;5056573;28;20056;-65
2023/06/05 05:04:38;;;;;;;1999.90;999.90;;;12.30;99.90;;;;;;5056492;28;20049;-65
2023/06/05 05:07:05;;;;;;;1999.90;999.90;;;12.30;99.90;;;;;;5056489;28;20053;-64
2023/06/05 05:09:31;;;;;;;1999.90;999.90;;;12.30;99.90;;;;;;5056322;28;20049;-65
2023/06/05 05:11:57;;;;;;;1999.90;999.90;;;12.30;99.90;;;;;;5055019;28;20120;-65
2023/06/05 05:14:27;;;;;;;1999.90;999.90;;;12.40;99.90;;;;;;5056274;28;20053;-65
2023/06/05 05:16:53;;;;;;;1999.90;999.90;;;12.40;99.90;;;;;;5056240;28;20049;-64
2023/06/05 05:19:19;;;;;;;1999.90;999.90;;;12.30;99.90;;;;;;5056071;28;20377;-65
2023/06/05 05:21:48;;;;;;;1999.90;999.90;;;12.40;99.90;;;;;;5056538;28;20053;-64
2023/06/05 05:24:14;;;;;;;1999.90;999.90;;;12.40;99.90;;;;;;5054982;28;20045;-64
2023/06/05 05:26:40;;;;;;;1999.90;999.90;;;12.40;99.90;;;;;;5056067;28;20056;-65
2023/06/05 05:29:06;;;;;;;1999.90;999.90;;;12.40;99.90;;;;;;5044999;28;20053;-65
2023/06/05 05:31:32;;;;;;;1999.90;999.90;;;12.50;99.90;;;;;;5056182;28;20057;-65
2023/06/05 05:33:58;;;;;;;1999.90;999.90;;;12.50;99.90;;;;;;5055980;28;20504;-65
2023/06/05 05:36:27;;;;;;;1999.90;999.90;;;12.50;99.90;;;;;;5056260;28;20049;-64
2023/06/05 05:38:56;;;;;;;1999.90;999.90;;;12.50;99.90;;;;;;5055857;28;20401;-65
2023/06/05 05:41:22;;;;;;;1999.90;999.90;;;12.60;99.90;;;;;;5054845;28;20151;-65
2023/06/05 05:43:47;;;;;;;1999.90;999.90;;;12.60;99.90;;;;;;5057204;28;20493;-65
2023/06/05 05:46:13;;;;;;;1999.90;999.90;;;12.70;99.90;;;;;;5055050;28;20041;-65
2023/06/05 05:48:39;;;;;;;1999.90;999.90;;;12.70;99.90;;;;;;5055683;28;20127;-65
2023/06/05 05:51:06;;;;;;;1999.90;999.90;;;12.70;99.90;;;;;;5055626;28;20120;-64
2023/06/05 05:53:31;;;;;;;1999.90;999.90;;;12.70;99.90;;;;;;5055627;28;20096;-65
2023/06/05 05:55:57;;;;;;;1999.90;999.90;;;12.70;99.90;;;;;;5056051;28;20041;-65
2023/06/05 05:58:23;;;;;;;1999.90;999.90;;;12.80;99.90;;;;;;5055709;28;20384;-65
2023/06/05 06:00:49;;;;;;;1999.90;999.90;;;12.80;99.90;;;;;;5055490;28;20044;-65
2023/06/05 06:03:17;;;;;;;1999.90;999.90;;;12.80;99.90;;;;;;5055960;28;20107;-65
2023/06/05 06:05:44;;;;;;;1999.90;999.90;;;12.90;99.90;;;;;;5055108;28;20572;-65
2023/06/05 06:08:10;;;;;;;1999.90;999.90;;;12.90;99.90;;;;;;5055638;28;20045;-65
2023/06/05 06:10:36;;;;;;;1999.90;999.90;;;12.90;99.90;;;;;;5055236;28;20040;-64
2023/06/05 06:13:04;;;;;;;1999.90;999.90;;;12.90;99.90;;;;;;5056193;28;20052;-64
2023/06/05 06:15:32;;;;;;;1999.90;999.90;;;12.90;99.90;;;;;;5055325;28;20051;-65
2023/06/05 06:18:02;;;;;;;1999.90;999.90;;;13.00;99.90;;;;;;5055793;28;20049;-65
2023/06/05 06:20:28;;;;;;;1999.90;999.90;;;13.00;99.90;;;;;;5055111;28;20515;-64
2023/06/05 06:22:54;;;;;;;1999.90;999.90;;;13.00;99.90;;;;;;5055071;28;20480;-65
2023/06/05 06:25:21;;;;;;;1999.90;999.90;;;13.10;99.90;;;;;;5055019;28;20041;-65
2023/06/05 06:27:53;;;;;;;1999.90;999.90;;;13.10;99.90;;;;;;5054780;28;20487;-65
2023/06/05 06:30:19;;;;;;;1999.90;999.90;;;13.10;99.90;;;;;;5055484;28;20063;-65
2023/06/05 06:32:45;;;;;;;1999.90;999.90;;;13.10;99.90;;;;;;5053748;28;20439;-64
2023/06/05 06:35:13;;;;;;;1999.90;999.90;;;13.10;99.90;;;;;;5054869;28;20049;-65
2023/06/05 06:37:42;;;;;;;1999.90;999.90;;;13.10;99.90;;;;;;5055037;28;20110;-64
2023/06/05 06:40:09;;;;;;;1999.90;999.90;;;13.10;99.90;;;;;;5054703;28;20041;-64
2023/06/05 06:42:37;;;;;;;1999.90;999.90;;;13.10;99.90;;;;;;5054523;28;20358;-65
2023/06/05 06:45:04;;;;;;;1999.90;999.90;;;13.20;99.90;;;;;;5054844;28;20045;-65
2023/06/05 06:47:30;;;;;;;1999.90;999.90;;;13.20;99.90;;;;;;5053548;28;20241;-65
2023/06/05 06:49:56;;;;;;;1999.90;999.90;;;13.20;99.90;;;;;;5053300;28;20045;-64
2023/06/05 06:52:23;;;;;;;1999.90;999.90;;;13.30;99.90;;;;;;5054431;28;20562;-64
2023/06/05 06:54:49;;;;;;;1999.90;999.90;;;13.20;99.90;;;;;;5054663;28;20048;-64
2023/06/05 06:57:15;;;;;;;1999.90;999.90;;;13.30;99.90;;;;;;5054234;28;20056;-65
2023/06/05 06:59:41;;;;;;;1999.90;999.90;;;13.30;99.90;;;;;;5054342;28;20041;-64
2023/06/05 07:02:15;;;;;;;1999.90;999.90;;;13.30;99.90;;;;;;5054289;28;20378;-65
2023/06/05 07:04:43;;;;;;;1999.90;999.90;;;13.40;99.90;;;;;;5054226;28;20072;-64
2023/06/05 07:07:13;;;;;;;1999.90;999.90;;;13.40;99.90;;;;;;5054203;28;20048;-64
2023/06/05 07:09:40;;;;;;;1999.90;999.90;;;13.50;99.90;;;;;;5054662;28;20055;-64
2023/06/05 07:12:09;;;;;;;1999.90;999.90;;;13.60;99.90;;;;;;5054034;28;20055;-65
2023/06/05 07:14:35;;;;;;;1999.90;999.90;;;13.60;99.90;;;;;;5052886;28;20041;-65
2023/06/05 07:17:01;;;;;;;1999.90;999.90;;;13.70;99.90;;;;;;5054033;28;20052;-65
2023/06/05 07:19:29;;;;;;;1999.90;999.90;;;13.70;99.90;;;;;;5053919;28;20080;-65
2023/06/05 07:21:57;;;;;;;1999.90;999.90;;;13.80;99.90;;;;;;5053993;28;20346;-65
2023/06/05 07:24:28;;;;;;;1999.90;999.90;;;13.90;99.90;;;;;;5054317;28;20595;-65
2023/06/05 07:26:57;;;;;;;1999.90;999.90;;;14.00;99.90;;;;;;5053826;28;20041;-65
2023/06/05 07:29:24;;;;;;;1999.90;999.90;;;14.10;99.90;;;;;;5052848;28;20049;-65
2023/06/05 07:31:54;;;;;;;1999.90;999.90;;;14.10;99.90;;;;;;5052478;28;20107;-65
2023/06/05 07:34:21;;;;;;;1999.90;999.90;;;14.10;99.90;;;;;;5054153;28;20122;-65
2023/06/05 07:36:49;;;;;;;1999.90;999.90;;;14.20;99.90;;;;;;5053837;28;20080;-65
2023/06/05 07:39:16;;;;;;;1999.90;999.90;;;14.20;99.90;;;;;;5053795;28;20103;-65
2023/06/05 07:41:42;;;;;;;1999.90;999.90;;;14.20;99.90;;;;;;5036262;28;20063;-64
2023/06/05 07:44:13;;;;;;;1999.90;999.90;;;14.20;99.90;;;;;;5054546;28;20082;-65
2023/06/05 07:46:46;;;;;;;1999.90;999.90;;;14.20;99.90;;;;;;5053902;28;20087;-65
2023/06/05 07:49:11;;;;;;;;;;;14.30;99.90;;;;;;5054407;28;20123;-66
2023/06/05 07:51:37;;;;;;;1999.90;999.90;;;14.30;99.90;;;;;;5053574;28;19925;-65
2023/06/05 07:54:07;;;;;;;1999.90;999.90;;;14.30;99.90;;;;;;5052894;28;20186;-66
2023/06/05 07:56:34;;;;;;;1999.90;999.90;;;14.40;99.90;;;;;;5053755;28;20048;-66
2023/06/05 07:59:02;;;;;;;1999.90;999.90;;;14.40;99.90;;;;;;5052722;28;20052;-66
2023/06/05 08:01:29;;;;;;;1999.90;999.90;;;14.40;99.90;;;;;;5052330;28;20041;-66
2023/06/05 08:03:55;;;;;;;1999.90;999.90;;;14.40;99.90;;;;;;5053300;28;20503;-66
2023/06/05 08:06:24;;;;;;;1999.90;999.90;;;14.40;99.90;;;;;;5053453;28;20126;-67
2023/06/05 08:08:52;;;;;;;1999.90;999.90;;;14.40;99.90;;;;;;5052294;28;20041;-66
2023/06/05 08:11:18;;;;;;;1999.90;999.90;;;14.50;99.90;;;;;;5054175;28;20041;-65
2023/06/05 08:13:45;;;;;;;1999.90;999.90;;;14.50;99.90;;;;;;5053975;28;20380;-66
2023/06/05 08:16:11;;;;;;;1999.90;999.90;;;14.60;99.90;;;;;;5052367;28;20139;-65
2023/06/05 08:18:36;;;;;;;1999.90;999.90;;;14.60;99.90;;;;;;5053387;28;20057;-66
2023/06/05 08:21:02;;;;;;;1999.90;999.90;;;14.60;99.90;;;;;;5053371;28;20048;-66
2023/06/05 08:23:28;;;;;;;1999.90;999.90;;;14.60;99.90;;;;;;5052168;28;20041;-65
2023/06/05 08:25:54;;;;;;;1999.90;999.90;;;14.70;99.90;;;;;;5053375;28;20048;-66
2023/06/05 08:28:20;;;;;;;1999.90;999.90;;;14.80;99.90;;;;;;5053242;28;20057;-65
2023/06/05 08:30:45;;;;;;;1999.90;999.90;;;14.80;99.90;;;;;;5053731;28;20057;-66
2023/06/05 08:33:11;;;;;;;1999.90;999.90;;;14.90;99.90;;;;;;5053272;28;20061;-66
2023/06/05 08:35:40;;;;;;;1999.90;999.90;;;15.00;99.90;;;;;;5053257;28;20103;-67
2023/06/05 08:38:06;;;;;;;1999.90;999.90;;;15.00;99.90;;;;;;5053149;28;20094;-66
2023/06/05 08:40:33;;;;;;;1999.90;999.90;;;15.10;99.90;;;;;;5052178;28;20052;-67
2023/06/05 08:43:03;;;;;;;1999.90;999.90;;;15.10;99.90;;;;;;5053746;28;20052;-66
2023/06/05 08:45:31;;;;;;;1999.90;999.90;;;15.10;99.90;;;;;;5053145;28;20061;-65
2023/06/05 08:48:00;;;;;;;1999.90;999.90;;;15.20;99.90;;;;;;5053220;28;20049;-66
2023/06/05 08:50:29;;;;;;;1999.90;999.90;;;15.20;99.90;;;;;;5053350;28;20041;-67
2023/06/05 08:52:58;;;;;;;1999.90;999.90;;;15.30;99.90;;;;;;5052587;28;20067;-67
2023/06/05 08:55:25;;;;;;;1999.90;999.90;;;15.30;99.90;;;;;;5051853;28;20124;-67
2023/06/05 08:57:52;;;;;;;1999.90;999.90;;;15.30;99.90;;;;;;5052925;28;20053;-66
2023/06/05 09:00:18;;;;;;;1999.90;999.90;;;15.30;99.90;;;;;;5052931;28;20404;-67
2023/06/05 09:02:46;;;;;;;1999.90;999.90;;;15.30;99.90;;;;;;5052645;28;20045;-67
2023/06/05 09:05:12;;;;;;;1999.90;999.90;;;15.40;99.90;;;;;;5055289;28;20400;-67
2023/06/05 09:07:38;;;;;;;1999.90;999.90;;;15.40;99.90;;;;;;5056660;28;20052;-67
2023/06/05 09:10:05;;;;;;;1999.90;999.90;;;15.40;99.90;;;;;;5056259;28;20546;-66
2023/06/05 09:12:32;;;;;;;1999.90;999.90;;;15.50;99.90;;;;;;5056405;28;20049;-67
2023/06/05 09:14:57;;;;;;;1999.90;999.90;;;15.50;99.90;;;;;;5056379;28;20440;-65
2023/06/05 09:17:23;;;;;;;1999.90;999.90;;;15.50;99.90;;;;;;5056797;28;20045;-65
2023/06/05 09:19:50;;;;;;;1999.90;999.90;;;15.50;99.90;;;;;;5056311;28;20045;-65
2023/06/05 09:22:16;;;;;;;1999.90;999.90;;;15.60;99.90;;;;;;5056697;28;20401;-67
2023/06/05 09:24:43;;;;;;;1999.90;999.90;;;15.60;99.90;;;;;;5055281;28;20052;-66
2023/06/05 09:27:16;;;;;;;1999.90;999.90;;;15.60;99.90;;;;;;5055875;28;20110;-66
2023/06/05 09:29:44;;;;;;;1999.90;999.90;;;15.60;99.90;;;;;;5056364;28;20076;-66
2023/06/05 09:32:18;;;;;;;1999.90;999.90;;;15.60;99.90;;;;;;5056156;28;20052;-65
2023/06/05 09:34:45;;;;;;;1999.90;999.90;;;15.80;99.90;;;;;;5056441;28;20079;-67
2023/06/05 09:37:12;;;;;;;1999.90;999.90;;;15.80;99.90;;;;;;5056058;28;20057;-66
2023/06/05 09:39:40;;;;;;;1999.90;999.90;;;15.80;99.90;;;;;;5055983;28;20127;-65
2023/06/05 09:42:06;;;;;;;1999.90;999.90;;;15.80;99.90;;;;;;5055976;28;20054;-64
2023/06/05 09:44:33;;;;;;;1999.90;999.90;;;15.90;99.90;;;;;;5056743;28;20341;-64
2023/06/05 09:47:00;;;;;;;1999.90;999.90;;;15.90;99.90;;;;;;5055879;28;20057;-66
2023/06/05 09:49:31;;;;;;;1999.90;999.90;;;16.00;99.90;;;;;;5055547;28;20049;-65
2023/06/05 09:51:59;;;;;;;1999.90;999.90;;;16.00;99.90;;;;;;5056311;28;20115;-65
2023/06/05 09:54:29;;;;;;;1999.90;999.90;;;16.00;99.90;;;;;;5054431;28;20057;-65
2023/06/05 09:57:06;;;;;;;1999.90;999.90;;;16.10;99.90;;;;;;5055849;28;20071;-64
2023/06/05 09:59:34;;;;;;;1999.90;999.90;;;16.10;99.90;;;;;;5056671;28;20113;-64
2023/06/05 10:02:04;;;;;;;1999.90;999.90;;;16.20;99.90;;;;;;5056384;28;20053;-65
2023/06/05 10:04:42;;;;;;;1999.90;999.90;;;16.20;99.90;;;;;;5056085;28;20131;-65
2023/06/05 10:07:08;;;;;;;1999.90;999.90;;;16.30;99.90;;;;;;5056072;28;20049;-65
2023/06/05 10:09:35;;;;;;;1999.90;999.90;;;16.30;99.90;;;;;;5055432;28;20084;-64
2023/06/05 10:12:03;;;;;;;1999.90;999.90;;;16.40;99.90;;;;;;5054185;28;20112;-64
2023/06/05 10:14:29;;;;;;;1999.90;999.90;;;16.40;99.90;;;;;;5055359;28;20134;-65
2023/06/05 10:16:57;;;;;;;1999.90;999.90;;;16.50;99.90;;;;;;5053120;28;20041;-65
2023/06/05 10:19:24;;;;;;;1999.90;999.90;;;16.50;99.90;;;;;;5056236;28;20045;-65
2023/06/05 10:21:50;;;;;;;1999.90;999.90;;;16.50;99.90;;;;;;5055207;28;20041;-65
2023/06/05 10:24:33;;;;;;;1999.90;999.90;;;16.50;99.90;;;;;;5054820;28;20048;-65
2023/06/05 10:27:11;;;;;;;1999.90;999.90;;;16.60;99.90;;;;;;5053938;28;20040;-70
2023/06/05 10:30:06;;;;;;;1999.90;999.90;;;16.60;99.90;;;;;;5054768;28;20045;-67
2023/06/05 10:32:57;;;;;;;1999.90;999.90;;;16.70;99.90;;;;;;5055784;28;20053;-66
2023/06/05 10:36:00;;;;;;;1999.90;999.90;;;16.70;99.90;;;;;;5055460;28;20053;-68
2023/06/05 10:38:27;;;;;;;1999.90;999.90;;;16.80;99.90;;;;;;5054902;28;20049;-67
2023/06/05 10:40:55;;;;;;;1999.90;999.90;;;16.80;99.90;;;;;;5054795;28;20098;-66
2023/06/05 10:43:45;;;;;;;1999.90;999.90;;;16.80;99.90;;;;;;5055053;28;20482;-66
2023/06/05 10:46:35;;;;;;;1999.90;999.90;;;16.90;99.90;;;;;;5055013;28;20132;-67
2023/06/05 10:49:15;;;;;;;1999.90;999.90;;;16.90;99.90;;;;;;5053533;28;20057;-66
2023/06/05 10:51:45;;;;;;;1999.90;999.90;;;16.90;99.90;;;;;;5055210;28;20044;-66
2023/06/05 10:54:23;;;;;;;1999.90;999.90;;;17.00;99.90;;;;;;5054586;28;20049;-67
2023/06/05 10:56:53;;;;;;;1999.90;999.90;;;17.00;99.90;;;;;;5054866;28;20533;-66
2023/06/05 10:59:20;;;;;;;1999.90;999.90;;;17.10;99.90;;;;;;5055241;28;20052;-66
2023/06/05 11:02:11;;;;;;;1999.90;999.90;;;17.00;99.90;;;;;;5054428;28;20045;-67
2023/06/05 11:04:42;;;;;;;1999.90;999.90;;;17.10;99.90;;;;;;5048616;28;20057;-66
2023/06/05 11:07:24;;;;;;;1999.90;999.90;;;17.10;99.90;;;;;;5053469;28;20451;-65
2023/06/05 11:10:02;;;;;;;1999.90;999.90;;;17.20;99.90;;;;;;5054910;28;20064;-66
2023/06/05 11:12:50;;;;;;;1999.90;999.90;;;17.20;99.90;;;;;;5054312;28;20095;-69
2023/06/05 11:15:38;;;;;;;1999.90;999.90;;;17.30;99.90;;;;;;5047549;28;20053;-70
2023/06/05 11:18:26;;;;;;;1999.90;999.90;;;17.30;99.90;;;;;;5053789;28;20375;-67
2023/06/05 11:20:52;;;;;;;1999.90;999.90;;;17.30;99.90;;;;;;5053763;28;20516;-73
2023/06/05 11:23:18;;;;;;;1999.90;999.90;;;17.40;99.90;;;;;;5054019;28;20477;-71
2023/06/05 11:25:44;;;;;;;1999.90;999.90;;;17.40;99.90;;;;;;5053305;28;20063;-73
2023/06/05 11:28:12;;;;;;;1999.90;999.90;;;17.40;99.90;;;;;;5052358;28;20052;-72
2023/06/05 11:30:46;;;;;;;1999.90;999.90;;;17.50;99.90;;;;;;5053618;28;20080;-73
2023/06/05 11:33:14;;;;;;;1999.90;999.90;;;17.50;99.90;;;;;;5053816;28;20084;-75
2023/06/05 11:35:42;;;;;;;1999.90;999.90;;;17.50;99.90;;;;;;5054678;28;20059;-74
2023/06/05 11:38:16;;;;;;;1999.90;999.90;;;17.60;99.90;;;;;;5053840;28;20085;-72
2023/06/05 11:40:43;;;;;;;1999.90;999.90;;;17.60;99.90;;;;;;5053700;28;20142;-72
2023/06/05 11:43:11;;;;;;;1999.90;999.90;;;17.60;99.90;;;;;;5053779;28;20048;-74
2023/06/05 11:45:38;;;;;;;1999.90;999.90;;;17.60;99.90;;;;;;5053811;28;20044;-73
2023/06/05 11:48:08;;;;;;;1999.90;999.90;;;17.70;99.90;;;;;;5054308;28;20126;-74
2023/06/05 11:50:34;;;;;;;1999.90;999.90;;;17.70;99.90;;;;;;5052961;28;20047;-73
2023/06/05 11:53:08;;;;;;;1999.90;999.90;;;17.70;99.90;;;;;;5053380;28;20048;-73
2023/06/05 11:58:28;;;;;;;1999.90;999.90;;;17.70;99.90;;;;;;5052473;28;20055;-76
2023/06/05 12:01:12;;;;;;;1999.90;999.90;;;17.70;99.90;;;;;;5052254;28;20048;-81
2023/06/05 12:03:39;;;;;;;1999.90;999.90;;;17.60;99.90;;;;;;5054554;28;20435;-76
2023/06/05 12:06:05;;;;;;;1999.90;999.90;;;17.50;99.90;;;;;;5054716;28;20122;-79
2023/06/05 12:08:33;;;;;;;1999.90;999.90;;;17.60;99.90;;;;;;5053873;28;20103;-77